Time;durP1;ratioP1;P1;durP2;ratioP2;P2;SDS_P1;SDS_P2;PMS_P1;PMS_P2;Temp;Humidity;BMP_temperature;BMP_pressure;BME280_temperature;BME280_humidity;BME280_pressure;Samples;Min_cycle;Max_cycle;Signal;HPM_P1;HPM_P2
2024/01/29 00:00:25;;;;;;;4.07;1.52;;;6.10;93.40;;;9.75;43.05;101686.34;5011345;28;20095;-75
2024/01/29 00:02:50;;;;;;;3.80;1.35;;;6.20;93.00;;;10.43;42.66;101708.09;5029449;28;20072;-75
2024/01/29 00:05:16;;;;;;;4.68;1.40;;;6.20;92.90;;;10.46;42.60;101691.34;5020370;28;20080;-75
2024/01/29 00:07:42;;;;;;;2.53;1.33;;;6.20;93.30;;;10.64;41.66;101673.72;5030319;28;20033;-76
2024/01/29 00:10:08;;;;;;;4.82;2.00;;;6.00;93.40;;;10.42;42.39;101670.09;5030907;28;20037;-75
2024/01/29 00:12:34;;;;;;;4.07;1.55;;;6.00;93.40;;;10.50;42.15;101673.56;5030644;28;20389;-76
2024/01/29 00:15:00;;;;;;;4.10;1.67;;;6.00;93.60;;;10.19;42.34;101655.53;5029200;28;20057;-75
2024/01/29 00:17:27;;;;;;;2.97;1.30;;;5.90;93.30;;;10.19;42.50;101660.97;5031297;28;20500;-75
2024/01/29 00:19:52;;;;;;;3.70;1.50;;;6.00;92.90;;;10.22;42.20;101663.31;5010901;28;20060;-76
2024/01/29 00:22:18;;;;;;;3.45;1.70;;;6.00;92.90;;;10.36;41.55;101658.03;5003584;28;20062;-76
2024/01/29 00:24:44;;;;;;;3.05;1.42;;;6.00;93.00;;;10.38;41.93;101649.66;5029458;28;20037;-76
2024/01/29 00:27:09;;;;;;;3.55;1.42;;;6.00;93.00;;;10.30;41.82;101646.00;5030449;28;20091;-76
2024/01/29 00:29:35;;;;;;;3.20;0.93;;;6.00;92.70;;;10.15;41.67;101631.53;5031382;28;20501;-75
2024/01/29 00:32:01;;;;;;;5.72;1.40;;;6.00;92.80;;;9.89;42.71;101633.72;5027472;28;20030;-75
2024/01/29 00:34:26;;;;;;;4.10;1.40;;;6.00;92.40;;;10.07;42.48;101643.38;5031686;28;20037;-75
2024/01/29 00:36:52;;;;;;;3.75;1.30;;;6.10;92.60;;;9.74;43.52;101654.66;5030881;28;20041;-75
2024/01/29 00:39:19;;;;;;;5.45;1.40;;;6.00;93.70;;;9.61;43.89;101663.47;5010769;28;20038;-76
2024/01/29 00:41:45;;;;;;;3.22;1.30;;;5.80;93.50;;;9.58;43.67;101659.28;5031061;28;20095;-76
2024/01/29 00:44:10;;;;;;;3.03;1.33;;;5.80;93.40;;;9.79;43.75;101661.25;5030767;28;20852;-76
2024/01/29 00:46:39;;;;;;;2.30;1.20;;;5.80;93.90;;;9.37;44.67;101657.22;5030885;28;20052;-75
2024/01/29 00:49:05;;;;;;;3.00;1.20;;;5.70;94.60;;;9.39;45.33;101671.50;5046572;28;20037;-75
2024/01/29 00:51:30;;;;;;;2.75;1.30;;;5.50;95.30;;;9.40;45.28;101672.38;5030594;28;20037;-76
2024/01/29 00:53:56;;;;;;;3.22;1.50;;;5.40;95.80;;;9.63;45.27;101694.09;5030667;28;20125;-76
2024/01/29 00:56:22;;;;;;;2.60;1.20;;;5.30;95.90;;;9.21;46.31;101674.56;5030337;28;20029;-75
2024/01/29 00:58:47;;;;;;;2.55;1.25;;;5.30;96.70;;;9.34;46.27;101693.00;5030422;28;20041;-76
2024/01/29 01:01:13;;;;;;;3.28;1.60;;;5.20;97.10;;;9.44;46.11;101690.91;5030434;28;20488;-76
2024/01/29 01:03:39;;;;;;;3.38;1.58;;;5.20;96.80;;;9.31;45.37;101677.03;5009701;28;20088;-77
2024/01/29 01:06:04;;;;;;;5.72;1.40;;;5.30;96.70;;;9.28;46.56;101691.88;5012959;28;20044;-76
2024/01/29 01:08:30;;;;;;;2.70;1.38;;;5.20;97.30;;;9.04;46.17;101691.03;5030269;28;20045;-77
2024/01/29 01:10:56;;;;;;;3.03;1.48;;;5.20;97.10;;;9.20;46.48;101691.94;5024807;28;20041;-77
2024/01/29 01:13:21;;;;;;;5.05;1.60;;;5.10;97.20;;;9.15;45.86;101683.47;5008596;28;20045;-76
2024/01/29 01:15:47;;;;;;;4.35;1.40;;;5.20;96.70;;;9.08;45.91;101675.16;5030423;28;20029;-76
2024/01/29 01:18:13;;;;;;;3.88;1.40;;;5.20;96.30;;;9.31;45.58;101677.91;5029593;28;20039;-76
2024/01/29 01:20:39;;;;;;;3.08;1.30;;;5.30;96.20;;;9.33;44.82;101667.66;5030627;28;20476;-75
2024/01/29 01:23:04;;;;;;;2.72;1.30;;;5.40;95.30;;;9.42;44.67;101673.03;5030447;28;20035;-75
2024/01/29 01:25:30;;;;;;;2.83;1.40;;;5.50;95.00;;;9.56;44.93;101666.78;5011428;28;20049;-75
2024/01/29 01:27:56;;;;;;;4.55;1.38;;;5.50;95.40;;;9.70;43.76;101653.34;5029910;28;20030;-75
2024/01/29 01:30:22;;;;;;;3.10;1.30;;;5.60;94.60;;;9.87;43.40;101657.59;5028661;28;20048;-75
2024/01/29 01:32:49;;;;;;;2.78;1.13;;;5.60;94.90;;;10.02;43.26;101654.88;5027619;28;20036;-75
2024/01/29 01:35:14;;;;;;;3.38;1.30;;;5.50;94.70;;;9.64;43.59;101638.59;5030092;28;20384;-75
2024/01/29 01:37:40;;;;;;;3.20;1.30;;;5.50;94.30;;;9.59;43.33;101647.34;5029909;28;20066;-75
2024/01/29 01:40:07;;;;;;;3.38;1.30;;;5.50;94.10;;;9.46;44.04;101638.94;5029421;28;20037;-76
2024/01/29 01:42:33;;;;;;;3.17;1.40;;;5.50;94.40;;;9.39;44.57;101649.72;5029855;28;20049;-76
2024/01/29 01:44:58;;;;;;;2.35;1.30;;;5.40;94.00;;;9.50;43.74;101654.75;5011984;28;20046;-76
2024/01/29 01:47:24;;;;;;;3.20;1.30;;;5.60;93.90;;;9.59;43.88;101660.09;5010549;28;20068;-75
2024/01/29 01:49:51;;;;;;;2.55;1.48;;;5.50;94.20;;;9.73;43.36;101655.69;5028068;28;20037;-76
2024/01/29 01:52:19;;;;;;;2.42;1.10;;;5.40;94.10;;;9.84;43.67;101666.16;5020914;28;20450;-75
2024/01/29 01:54:46;;;;;;;2.85;1.10;;;5.50;94.10;;;9.77;42.89;101646.13;5011718;28;20473;-75
2024/01/29 01:57:12;;;;;;;2.58;1.17;;;5.50;93.90;;;9.80;42.54;101634.84;5029894;28;20037;-75
2024/01/29 01:59:39;;;;;;;1.70;0.95;;;5.60;93.70;;;9.82;42.41;101629.22;5029521;28;20043;-75
2024/01/29 02:02:07;;;;;;;3.70;1.30;;;5.60;93.40;;;9.65;42.58;101623.94;5008921;28;20050;-75
2024/01/29 02:04:33;;;;;;;2.00;1.13;;;5.60;93.40;;;9.54;43.27;101613.50;5027862;28;20085;-75
2024/01/29 02:06:59;;;;;;;1.77;1.05;;;5.50;93.50;;;9.56;43.23;101625.91;5010601;28;20045;-75
2024/01/29 02:09:26;;;;;;;3.33;1.20;;;5.50;93.60;;;9.55;42.66;101616.06;5029855;28;20037;-76
2024/01/29 02:11:51;;;;;;;3.15;1.05;;;5.40;93.60;;;9.83;42.54;101626.31;5029540;28;20038;-75
2024/01/29 02:14:17;;;;;;;1.90;1.10;;;5.40;93.20;;;10.03;41.41;101615.66;5028527;28;20053;-76
2024/01/29 02:16:43;;;;;;;3.28;1.30;;;5.50;92.90;;;9.83;41.93;101596.34;5029481;28;20029;-77
2024/01/29 02:19:16;;;;;;;3.17;1.10;;;5.60;92.80;;;9.80;42.69;101607.56;5029406;28;20613;-77
2024/01/29 02:21:42;;;;;;;2.45;1.08;;;5.50;93.30;;;9.50;42.52;101591.22;5029232;28;20416;-77
2024/01/29 02:24:08;;;;;;;5.50;1.48;;;5.40;92.90;;;9.47;42.57;101597.06;5029298;28;20041;-77
2024/01/29 02:26:34;;;;;;;2.78;1.25;;;5.40;93.30;;;9.35;42.68;101583.91;5029102;28;20065;-77
2024/01/29 02:29:00;;;;;;;2.47;1.00;;;5.30;93.40;;;9.31;43.01;101596.19;5027117;28;20473;-77
2024/01/29 02:31:26;;;;;;;3.03;1.10;;;5.20;93.70;;;9.34;42.83;101587.66;5029401;28;20045;-77
2024/01/29 02:33:52;;;;;;;2.13;1.13;;;5.10;93.40;;;9.39;42.64;101578.09;5008940;28;20056;-77
2024/01/29 02:36:17;;;;;;;2.45;1.10;;;5.10;93.40;;;9.41;42.02;101581.47;5029128;28;20041;-77
2024/01/29 02:38:43;;;;;;;2.58;1.00;;;5.30;92.40;;;9.30;41.71;101570.00;5028876;28;20359;-77
2024/01/29 02:41:09;;;;;;;2.35;0.90;;;5.50;91.60;;;9.56;41.37;101573.28;5029177;28;20628;-77
2024/01/29 02:43:35;;;;;;;4.13;1.35;;;5.70;91.40;;;9.50;41.13;101553.09;5028713;28;20095;-77
2024/01/29 02:46:01;;;;;;;3.22;1.13;;;5.80;90.90;;;9.46;41.82;101568.13;5032924;28;20041;-75
2024/01/29 02:48:27;;;;;;;3.85;1.27;;;5.90;91.10;;;9.28;42.53;101566.63;5033337;28;20041;-77
2024/01/29 02:50:52;;;;;;;2.00;1.02;;;5.90;91.50;;;9.14;43.63;101584.59;5033339;28;20072;-77
2024/01/29 02:53:19;;;;;;;2.78;1.20;;;5.60;93.30;;;8.83;45.63;101606.47;5033425;28;20048;-75
2024/01/29 02:55:44;;;;;;;2.65;1.20;;;5.30;95.40;;;8.37;46.88;101616.25;5032009;28;20045;-75
2024/01/29 02:58:10;;;;;;;4.63;1.30;;;5.00;96.10;;;8.21;47.42;101626.19;5033136;28;20033;-77
2024/01/29 03:00:36;;;;;;;1.95;0.90;;;4.80;96.60;;;7.73;48.38;101623.47;5033238;28;20111;-75
2024/01/29 03:03:02;;;;;;;2.60;1.13;;;4.60;96.80;;;8.39;47.64;101656.88;5032720;28;20045;-76
2024/01/29 03:05:27;;;;;;;2.80;1.00;;;4.70;96.60;;;8.34;47.96;101641.91;5032397;28;20103;-77
2024/01/29 03:07:53;;;;;;;4.18;1.38;;;4.80;97.10;;;8.29;46.08;101613.59;5048375;28;20511;-77
2024/01/29 03:10:19;;;;;;;3.75;1.00;;;4.80;94.50;;;8.63;44.45;101602.38;5047715;28;20477;-77
2024/01/29 03:12:45;;;;;;;2.53;1.08;;;5.30;92.80;;;8.91;43.26;101590.94;5028114;28;20038;-77
2024/01/29 03:15:11;;;;;;;3.00;1.00;;;5.70;91.50;;;9.16;42.12;101560.78;5032863;28;20040;-78
2024/01/29 03:17:37;;;;;;;2.63;1.02;;;6.10;90.00;;;9.60;40.41;101556.41;5032780;28;20504;-78
2024/01/29 03:20:03;;;;;;;2.30;0.95;;;6.50;87.10;;;9.99;40.10;101538.03;5031781;28;20397;-77
2024/01/29 03:22:29;;;;;;;2.20;1.00;;;6.70;85.00;;;10.43;37.86;101516.28;5032333;28;20053;-75
2024/01/29 03:24:55;;;;;;;3.78;1.20;;;7.10;82.10;;;10.72;37.36;101515.31;5032385;28;20038;-77
2024/01/29 03:27:20;;;;;;;2.72;1.00;;;7.30;81.90;;;10.84;37.39;101515.63;5032409;28;20033;-77
2024/01/29 03:29:46;;;;;;;2.90;1.08;;;7.20;81.80;;;11.20;36.92;101527.44;5047706;28;20048;-75
2024/01/29 03:32:12;;;;;;;2.85;0.90;;;7.10;81.90;;;11.39;36.92;101522.28;5013998;28;20041;-75
2024/01/29 03:34:44;;;;;;;3.13;1.00;;;6.90;84.00;;;11.66;36.93;101540.50;5031412;28;20041;-75
2024/01/29 03:37:12;;;;;;;2.95;1.17;;;6.50;85.60;;;10.97;37.54;101511.28;5029378;28;20051;-75
2024/01/29 03:39:39;;;;;;;3.17;0.93;;;6.30;87.20;;;11.04;39.22;101537.59;5032168;28;20068;-75
2024/01/29 03:42:05;;;;;;;2.45;1.05;;;6.00;90.00;;;10.25;39.55;101525.75;5013427;28;22251;-75
2024/01/29 03:44:30;;;;;;;2.63;1.10;;;5.70;90.40;;;9.96;40.56;101532.09;5032382;28;20100;-75
2024/01/29 03:46:56;;;;;;;2.42;0.80;;;5.50;90.50;;;10.21;39.64;101535.31;5032231;28;20539;-76
2024/01/29 03:49:22;;;;;;;3.40;0.80;;;5.50;90.30;;;10.26;40.35;101545.66;5030712;28;20048;-75
2024/01/29 03:51:47;;;;;;;1.98;0.93;;;5.40;91.00;;;10.18;40.21;101561.13;5030094;28;20049;-75
2024/01/29 03:54:13;;;;;;;2.33;1.08;;;5.30;91.20;;;10.15;40.31;101556.03;5032044;28;20033;-75
2024/01/29 03:56:39;;;;;;;2.08;0.95;;;5.20;91.30;;;9.75;40.68;101545.50;5011817;28;20049;-75
2024/01/29 03:59:10;;;;;;;1.70;0.80;;;5.10;92.00;;;9.34;41.44;101557.69;5047334;28;20099;-75
2024/01/29 04:01:37;;;;;;;2.72;1.00;;;5.10;92.10;;;9.26;41.86;101557.75;5031378;28;20037;-76
2024/01/29 04:04:04;;;;;;;1.55;0.82;;;5.20;91.70;;;9.25;42.30;101563.41;5031473;28;20137;-75
2024/01/29 04:06:29;;;;;;;2.17;0.82;;;5.30;91.50;;;9.58;41.13;101579.41;5032653;28;20041;-76
2024/01/29 04:08:55;;;;;;;2.75;1.05;;;5.40;90.60;;;9.44;41.38;101564.75;5031530;28;20409;-76
2024/01/29 04:11:21;;;;;;;1.95;0.90;;;5.50;91.00;;;9.45;42.24;101578.19;5031616;28;20092;-75
2024/01/29 04:13:47;;;;;;;2.75;1.00;;;5.50;91.30;;;10.07;41.29;101602.47;5031552;28;20037;-75
2024/01/29 04:16:12;;;;;;;2.92;1.17;;;5.40;90.90;;;10.44;39.87;101600.66;5030667;28;20042;-75
2024/01/29 04:18:39;;;;;;;1.90;1.08;;;5.30;90.70;;;10.60;39.27;101596.00;5030281;28;20029;-75
2024/01/29 04:21:08;;;;;;;3.25;1.10;;;5.30;90.90;;;10.04;40.11;101568.28;5031593;28;20068;-75
2024/01/29 04:23:35;;;;;;;2.35;1.10;;;5.20;91.10;;;10.17;39.19;101558.56;5031038;28;20029;-75
2024/01/29 04:26:01;;;;;;;3.15;0.90;;;5.20;90.40;;;9.69;39.59;101537.22;5029607;28;20045;-75
2024/01/29 04:28:27;;;;;;;2.60;1.10;;;5.20;90.40;;;9.78;39.99;101550.56;5010402;28;20477;-75
2024/01/29 04:30:54;;;;;;;2.72;1.00;;;5.30;90.10;;;9.75;40.88;101564.56;5031645;28;20059;-74
2024/01/29 04:33:19;;;;;;;1.90;0.90;;;5.40;90.60;;;10.00;41.25;101588.78;5030149;28;20113;-75
2024/01/29 04:35:45;;;;;;;3.45;1.38;;;5.30;92.10;;;9.68;42.38;101590.03;5031303;28;20045;-75
2024/01/29 04:38:11;;;;;;;3.40;1.23;;;5.00;93.00;;;10.04;41.58;101608.31;5031052;28;20033;-75
2024/01/29 04:40:39;;;;;;;1.65;0.88;;;4.70;93.70;;;9.74;41.41;101584.69;5030615;28;20042;-75
2024/01/29 04:43:05;;;;;;;;;;;4.60;93.40;;;9.39;41.18;101567.19;5031287;28;20037;-75
2024/01/29 04:45:31;;;;;;;3.63;1.17;;;4.70;92.50;;;8.91;41.39;101543.81;5031515;28;20299;-75
2024/01/29 04:47:56;;;;;;;4.00;1.23;;;4.90;90.80;;;9.30;40.84;101545.50;5028456;28;20033;-76
2024/01/29 04:50:22;;;;;;;2.55;0.90;;;5.30;89.70;;;9.17;40.62;101535.25;5029603;28;20459;-76
2024/01/29 04:52:48;;;;;;;1.83;0.82;;;5.70;88.60;;;9.40;40.14;101544.38;5030209;28;20037;-75
2024/01/29 04:55:14;;;;;;;2.80;1.00;;;6.00;86.90;;;9.43;40.10;101542.13;5012109;28;20159;-77
2024/01/29 04:57:41;;;;;;;2.15;0.90;;;6.10;86.50;;;9.55;39.97;101537.06;5030655;28;20120;-77
2024/01/29 05:00:08;;;;;;;2.25;0.93;;;6.20;86.30;;;9.61;40.38;101549.91;5030634;28;20047;-77
2024/01/29 05:02:35;;;;;;;3.33;1.20;;;6.20;88.00;;;9.55;41.25;101566.16;5030592;28;20063;-77
2024/01/29 05:05:01;;;;;;;2.38;1.05;;;6.00;89.50;;;9.15;42.13;101558.22;5030324;28;20045;-76
2024/01/29 05:07:27;;;;;;;1.77;0.98;;;5.70;90.70;;;9.33;42.66;101580.53;5029311;28;20032;-76
2024/01/29 05:09:54;;;;;;;1.80;0.98;;;5.40;91.70;;;8.96;42.93;101579.50;5028446;28;20049;-76
2024/01/29 05:12:20;;;;;;;3.08;1.00;;;5.30;91.70;;;9.00;42.83;101585.41;5008994;28;20672;-76
2024/01/29 05:14:46;;;;;;;3.50;1.10;;;5.30;92.00;;;8.96;43.29;101598.53;5030715;28;20034;-76
2024/01/29 05:17:12;;;;;;;2.22;1.17;;;5.20;92.00;;;9.01;43.06;101598.81;5042327;28;20645;-77
2024/01/29 05:19:44;;;;;;;3.10;0.88;;;5.20;92.00;;;8.97;43.10;101593.97;5009439;28;20038;-76
2024/01/29 05:22:09;;;;;;;1.73;0.90;;;5.20;91.40;;;8.96;42.85;101589.53;5029998;28;20104;-77
2024/01/29 05:24:35;;;;;;;1.98;0.80;;;5.40;91.00;;;8.91;42.33;101577.34;5045467;28;20048;-77
2024/01/29 05:27:01;;;;;;;2.72;0.95;;;5.60;90.60;;;9.05;42.12;101575.69;5030484;28;20025;-76
2024/01/29 05:29:27;;;;;;;1.95;0.82;;;5.80;90.00;;;9.32;42.07;101591.59;5029068;28;20037;-76
2024/01/29 05:31:52;;;;;;;2.53;1.00;;;5.80;90.20;;;9.41;41.92;101598.63;5024236;28;20045;-78
2024/01/29 05:34:18;;;;;;;2.42;1.10;;;5.70;90.70;;;9.02;43.01;101586.94;5012452;28;20040;-77
2024/01/29 05:36:44;;;;;;;3.00;0.93;;;5.60;91.40;;;9.06;43.62;101606.44;5029682;28;20400;-77
2024/01/29 05:39:09;;;;;;;3.58;1.10;;;5.40;92.00;;;8.76;44.12;101600.91;5030363;28;20032;-76
2024/01/29 05:41:35;;;;;;;2.42;0.90;;;5.20;92.50;;;8.65;44.42;101602.19;5030055;28;20464;-76
2024/01/29 05:44:01;;;;;;;2.30;1.05;;;5.10;92.80;;;8.78;44.18;101605.16;5029201;28;20038;-76
2024/01/29 05:46:26;;;;;;;2.45;1.05;;;5.10;92.50;;;8.95;43.48;101612.34;5009841;28;20030;-77
2024/01/29 05:48:52;;;;;;;2.92;0.90;;;5.10;92.20;;;8.97;43.68;101608.41;5030119;28;20042;-76
2024/01/29 05:51:20;;;;;;;2.95;1.30;;;5.20;92.30;;;9.04;43.36;101612.09;5029614;28;20061;-77
2024/01/29 05:53:45;;;;;;;2.60;1.10;;;5.20;92.20;;;9.20;43.37;101612.97;5029750;28;20040;-77
2024/01/29 05:56:11;;;;;;;3.28;1.25;;;5.20;92.50;;;9.15;43.76;101607.25;5028445;28;20045;-76
2024/01/29 05:58:37;;;;;;;2.53;1.10;;;5.20;92.70;;;9.26;43.86;101614.94;5028562;28;20089;-76
2024/01/29 06:01:03;;;;;;;3.08;1.00;;;5.00;93.60;;;8.72;45.06;101615.91;5025101;28;20033;-75
2024/01/29 06:03:29;;;;;;;2.50;1.00;;;4.90;94.30;;;8.82;45.07;101623.84;5003756;28;20055;-76
2024/01/29 06:05:55;;;;;;;1.95;1.00;;;4.80;94.30;;;8.84;45.16;101630.78;4990350;28;20038;-76
2024/01/29 06:08:21;;;;;;;3.40;1.33;;;4.70;94.10;;;8.75;44.69;101624.56;4987916;28;20038;-76
2024/01/29 06:10:46;;;;;;;4.22;1.20;;;4.80;93.90;;;8.87;44.35;101632.31;4985906;28;20034;-77
2024/01/29 06:13:12;;;;;;;4.38;1.73;;;4.90;93.60;;;8.97;44.03;101627.44;4985858;28;20466;-77
2024/01/29 06:15:38;;;;;;;5.32;1.42;;;5.10;93.10;;;8.97;43.55;101607.56;4989639;28;20061;-77
2024/01/29 06:18:04;;;;;;;4.68;1.48;;;5.30;92.70;;;9.43;43.16;101625.69;4987623;28;20108;-76
2024/01/29 06:20:30;;;;;;;5.20;2.10;;;5.50;92.60;;;9.40;43.62;101623.34;4990365;28;20046;-77
2024/01/29 06:22:56;;;;;;;8.02;2.03;;;5.60;92.80;;;9.43;43.69;101620.25;4990642;28;20108;-76
2024/01/29 06:25:21;;;;;;;2.97;1.20;;;5.60;92.70;;;9.23;43.65;101612.59;4986559;28;20035;-77
2024/01/29 06:27:47;;;;;;;3.90;1.40;;;5.60;92.40;;;9.34;43.44;101614.88;4990864;28;20042;-77
2024/01/29 06:30:14;;;;;;;5.78;1.35;;;5.60;92.30;;;9.49;43.23;101624.94;4990272;28;20038;-76
2024/01/29 06:32:41;;;;;;;6.00;1.77;;;5.70;92.40;;;9.66;43.09;101625.63;4990428;28;20042;-74
2024/01/29 06:35:07;;;;;;;2.88;1.40;;;5.70;92.40;;;9.46;43.37;101617.16;4985147;28;20034;-75
2024/01/29 06:37:33;;;;;;;3.47;1.35;;;5.60;92.90;;;8.95;44.47;101607.72;4987140;28;20540;-75
2024/01/29 06:39:59;;;;;;;2.53;1.13;;;5.40;93.40;;;8.70;45.44;101637.84;4984222;28;20576;-74
2024/01/29 06:42:24;;;;;;;3.13;1.35;;;5.20;94.30;;;8.68;46.01;101648.06;4987632;28;20047;-74
2024/01/29 06:44:51;;;;;;;2.22;1.20;;;5.00;95.20;;;8.69;45.78;101660.63;4987371;28;20068;-75
2024/01/29 06:47:17;;;;;;;2.08;1.02;;;4.80;95.10;;;8.66;45.78;101666.44;4990729;28;20039;-75
2024/01/29 06:49:43;;;;;;;3.72;1.25;;;4.80;95.20;;;8.80;45.77;101672.16;4988616;28;20034;-76
2024/01/29 06:52:09;;;;;;;3.42;1.30;;;4.80;95.40;;;8.77;45.73;101674.22;4990384;28;20127;-75
2024/01/29 06:54:34;;;;;;;3.35;1.40;;;4.80;95.60;;;8.77;46.65;101681.50;4990530;28;20038;-76
2024/01/29 06:57:00;;;;;;;2.80;1.10;;;4.80;95.80;;;8.67;46.48;101683.63;4989395;28;20084;-75
2024/01/29 06:59:26;;;;;;;4.95;1.40;;;4.80;96.00;;;8.92;45.91;101700.63;5019757;28;20096;-75
2024/01/29 07:01:56;;;;;;;3.78;1.40;;;4.90;95.50;;;9.05;45.49;101694.59;5007507;28;20042;-75
2024/01/29 07:04:22;;;;;;;3.88;1.40;;;4.90;95.40;;;8.95;45.45;101703.00;5027630;28;22205;-75
2024/01/29 07:06:48;;;;;;;3.28;1.40;;;5.00;95.10;;;9.07;45.47;101700.69;5043041;28;20049;-75
2024/01/29 07:09:14;;;;;;;3.70;1.13;;;5.00;95.10;;;9.37;45.15;101699.97;5027981;28;20052;-74
2024/01/29 07:11:39;;;;;;;3.00;1.27;;;4.90;95.70;;;9.53;45.27;101710.72;5027713;28;20037;-75
2024/01/29 07:14:05;;;;;;;4.55;1.60;;;4.80;96.30;;;8.99;45.66;101684.44;5029324;28;20496;-76
2024/01/29 07:16:31;;;;;;;3.10;1.60;;;4.70;97.10;;;8.80;45.98;101689.31;5028457;28;20033;-76
2024/01/29 07:18:56;;;;;;;4.38;1.70;;;4.60;97.50;;;9.01;46.53;101717.75;5029375;28;20148;-75
2024/01/29 07:21:22;;;;;;;4.82;1.90;;;4.60;97.80;;;8.82;46.17;101703.59;5029541;28;20045;-75
2024/01/29 07:23:48;;;;;;;4.05;1.70;;;4.60;97.40;;;8.80;46.70;101704.81;5029482;28;20077;-75
2024/01/29 07:26:14;;;;;;;3.53;1.33;;;4.70;97.00;;;8.88;46.54;101699.31;5027283;28;20485;-76
2024/01/29 07:28:39;;;;;;;3.03;1.50;;;4.80;96.80;;;8.99;45.96;101711.66;5028150;28;20076;-76
2024/01/29 07:31:05;;;;;;;3.35;1.10;;;4.90;96.30;;;8.71;47.14;101699.38;5032626;28;20037;-76
2024/01/29 07:33:31;;;;;;;2.60;1.30;;;5.00;96.30;;;9.16;46.38;101715.09;5032995;28;20382;-77
2024/01/29 07:35:57;;;;;;;3.65;1.20;;;5.10;95.90;;;9.07;45.89;101704.28;5032780;28;20040;-76
2024/01/29 07:38:23;;;;;;;2.83;1.40;;;5.20;95.90;;;9.07;45.96;101714.31;5031847;28;20041;-75
2024/01/29 07:40:48;;;;;;;3.22;1.42;;;5.30;95.70;;;9.14;45.79;101709.81;5033335;28;20099;-76
2024/01/29 07:43:14;;;;;;;2.92;1.35;;;5.40;95.40;;;9.44;45.66;101718.13;5031885;28;20037;-76
2024/01/29 07:45:40;;;;;;;3.22;1.50;;;5.50;95.40;;;9.36;46.08;101726.34;5032102;28;20061;-75
2024/01/29 07:48:06;;;;;;;3.75;1.77;;;5.50;95.50;;;9.15;46.04;101711.56;5032314;28;20044;-76
2024/01/29 07:50:32;;;;;;;3.17;1.40;;;5.60;95.10;;;9.68;45.54;101737.16;5031352;28;20092;-75
2024/01/29 07:52:58;;;;;;;5.45;1.75;;;5.60;95.40;;;9.50;45.45;101721.97;5033078;28;20045;-77
2024/01/29 07:55:24;;;;;;;2.90;1.30;;;5.60;95.10;;;9.51;45.53;101729.13;5032800;28;20388;-76
2024/01/29 07:57:49;;;;;;;3.45;1.60;;;5.70;94.80;;;9.67;45.66;101733.56;5032155;28;20038;-77
2024/01/29 08:00:15;;;;;;;3.10;1.42;;;5.80;95.20;;;9.53;45.89;101739.84;5032544;28;20040;-79
2024/01/29 08:02:41;;;;;;;3.97;1.60;;;5.80;95.00;;;9.53;45.61;101727.06;5032371;28;20545;-77
2024/01/29 08:05:07;;;;;;;3.58;1.52;;;5.90;94.80;;;9.54;45.90;101734.19;5032945;28;20048;-78
2024/01/29 08:07:32;;;;;;;3.65;1.50;;;5.90;95.20;;;9.67;46.07;101738.19;5015131;28;20037;-79
2024/01/29 08:10:01;;;;;;;3.40;1.70;;;6.00;95.00;;;9.90;46.25;101739.00;5032385;28;20633;-77
2024/01/29 08:12:27;;;;;;;3.70;1.50;;;6.10;95.30;;;9.76;46.04;101740.66;5032194;28;20045;-77
2024/01/29 08:14:53;;;;;;;5.35;1.60;;;6.10;95.40;;;9.69;46.08;101733.41;5030749;28;20034;-77
2024/01/29 08:17:19;;;;;;;3.25;1.40;;;6.10;95.10;;;9.59;46.22;101730.94;5031139;28;20025;-77
2024/01/29 08:19:45;;;;;;;3.13;1.63;;;6.10;94.80;;;9.93;45.98;101754.97;5032036;28;20049;-77
2024/01/29 08:22:10;;;;;;;3.83;1.55;;;6.20;95.20;;;9.93;46.28;101744.06;5032454;28;20035;-77
2024/01/29 08:24:37;;;;;;;4.60;1.70;;;6.20;95.60;;;9.85;46.57;101744.16;5031758;28;20443;-77
2024/01/29 08:27:03;;;;;;;2.92;1.45;;;6.30;95.20;;;10.11;46.75;101759.25;5030761;28;20033;-77
2024/01/29 08:29:29;;;;;;;4.28;1.67;;;6.30;95.80;;;10.25;45.79;101759.41;5013011;28;20111;-77
2024/01/29 08:31:55;;;;;;;2.97;1.48;;;6.40;95.60;;;10.30;46.08;101748.78;5031313;28;20063;-77
2024/01/29 08:34:20;;;;;;;2.63;1.48;;;6.50;95.50;;;10.28;46.00;101748.13;5031169;28;20033;-76
2024/01/29 08:36:46;;;;;;;4.43;1.60;;;6.50;95.60;;;10.18;45.62;101742.97;5030732;28;20405;-77
2024/01/29 08:39:12;;;;;;;4.68;1.60;;;6.50;95.30;;;9.91;46.20;101735.25;5027088;28;20033;-76
2024/01/29 08:41:37;;;;;;;3.05;1.50;;;6.40;95.30;;;9.75;46.88;101740.84;5013837;28;20501;-76
2024/01/29 08:44:04;;;;;;;5.00;1.50;;;6.30;95.60;;;9.82;47.94;101751.84;5031361;28;20451;-76
2024/01/29 08:46:30;;;;;;;3.13;1.75;;;6.20;96.80;;;9.56;48.44;101761.28;5039302;28;20079;-76
2024/01/29 08:48:56;;;;;;;5.07;1.50;;;6.00;97.50;;;9.67;47.98;101770.88;5031595;28;20029;-77
2024/01/29 08:51:22;;;;;;;3.28;1.40;;;6.00;97.10;;;9.60;47.56;101755.28;5031719;28;20053;-78
2024/01/29 08:53:47;;;;;;;4.18;1.40;;;6.00;96.50;;;9.57;48.14;101752.06;5031498;28;20443;-78
2024/01/29 08:56:13;;;;;;;2.70;1.30;;;6.10;96.50;;;9.71;47.57;101756.72;5031615;28;20037;-76
2024/01/29 08:58:39;;;;;;;4.63;1.65;;;6.10;96.30;;;9.84;47.91;101753.38;5030752;28;20429;-78
2024/01/29 09:01:05;;;;;;;4.72;1.60;;;6.20;96.50;;;9.66;47.82;101747.41;5031889;28;20078;-76
2024/01/29 09:03:31;;;;;;;4.40;1.67;;;6.20;96.70;;;9.64;48.33;101766.63;5030725;28;20069;-78
2024/01/29 09:05:56;;;;;;;3.65;1.50;;;6.20;96.80;;;9.70;48.21;101765.94;5030884;28;20099;-78
2024/01/29 09:08:22;;;;;;;4.30;1.75;;;6.20;97.20;;;9.91;48.23;101767.94;5030574;28;20048;-78
2024/01/29 09:10:48;;;;;;;4.72;1.65;;;6.30;96.90;;;10.04;47.68;101772.75;5029824;28;20048;-76
2024/01/29 09:13:13;;;;;;;3.90;1.60;;;6.40;97.00;;;10.08;47.91;101762.34;5029381;28;20044;-76
2024/01/29 09:15:39;;;;;;;2.75;1.55;;;6.50;96.50;;;10.24;47.48;101771.38;5030989;28;20535;-77
2024/01/29 09:18:05;;;;;;;4.78;1.73;;;6.60;96.60;;;10.41;48.35;101772.91;5030221;28;20041;-76
2024/01/29 09:20:30;;;;;;;3.53;1.67;;;6.70;97.40;;;10.16;47.86;101759.53;5030864;28;20049;-76
2024/01/29 09:22:56;;;;;;;3.67;1.58;;;6.70;96.30;;;10.22;48.07;101769.66;5031786;28;20538;-79
2024/01/29 09:25:22;;;;;;;5.75;1.88;;;6.80;96.90;;;10.29;48.24;101761.59;5031262;28;20033;-76
2024/01/29 09:27:47;;;;;;;4.80;1.80;;;6.80;97.00;;;10.18;48.71;101756.59;5031149;28;20041;-77
2024/01/29 09:30:14;;;;;;;3.75;1.60;;;6.70;97.30;;;10.31;48.93;101767.72;5010731;28;20045;-76
2024/01/29 09:32:40;;;;;;;3.08;1.90;;;6.60;97.80;;;10.24;48.45;101763.19;5027764;28;20037;-76
2024/01/29 09:35:08;;;;;;;6.65;1.90;;;6.60;98.00;;;10.21;49.36;101787.06;5030947;28;20036;-76
2024/01/29 09:37:34;;;;;;;4.05;1.90;;;6.50;98.30;;;10.42;48.69;101777.34;5029954;28;20120;-74
2024/01/29 09:40:00;;;;;;;4.32;1.83;;;6.60;98.30;;;10.55;49.13;101790.31;5029633;28;20034;-74
2024/01/29 09:42:29;;;;;;;7.25;2.50;;;6.60;98.50;;;10.47;48.94;101784.94;5030105;28;20477;-75
2024/01/29 09:44:57;;;;;;;4.95;2.03;;;6.70;98.50;;;10.38;49.13;101778.72;5030030;28;20489;-75
2024/01/29 09:47:24;;;;;;;4.93;2.13;;;6.80;98.30;;;11.00;49.04;101798.44;5030367;28;20140;-75
2024/01/29 09:49:50;;;;;;;5.35;1.80;;;6.90;98.70;;;10.76;47.89;101780.53;5025987;28;20103;-75
2024/01/29 09:52:16;;;;;;;3.35;1.65;;;7.30;96.90;;;10.97;47.92;101792.50;5028466;28;20041;-75
2024/01/29 09:54:46;;;;;;;3.42;1.85;;;7.60;96.40;;;11.53;47.49;101794.59;5029673;28;20180;-75
2024/01/29 09:57:14;;;;;;;3.72;1.73;;;;;;;11.86;46.93;101791.31;5030295;28;20056;-75
2024/01/29 09:59:41;;;;;;;3.38;1.70;;;;;;;12.51;45.21;101774.78;5002108;28;20100;-75
2024/01/29 10:02:08;;;;;;;4.78;1.70;;;;;;;12.73;44.15;101749.16;5030058;28;20049;-75
2024/01/29 10:04:34;;;;;;;3.95;1.75;;;;;;;12.79;44.10;101757.41;5030294;28;20038;-74
2024/01/29 10:07:01;;;;;;;3.88;2.00;;;;;;;14.26;42.54;101770.66;5044711;28;20156;-76
2024/01/29 10:09:29;;;;;;;3.15;1.60;;;;;;;14.56;40.75;101746.28;5030431;28;20056;-76
2024/01/29 10:11:55;;;;;;;5.38;2.10;;;;;;;15.05;39.33;101730.22;5030369;28;20120;-76
2024/01/29 10:14:21;;;;;;;4.07;1.90;;;;;;;14.78;39.13;101697.41;5029259;28;20033;-76
2024/01/29 10:16:49;;;;;;;3.83;1.60;;;;;;;15.02;39.27;101713.38;5030403;28;20025;-77
2024/01/29 10:19:16;;;;;;;4.88;2.03;;;;;;;15.32;39.68;101721.81;5022651;28;20044;-77
2024/01/29 10:21:43;;;;;;;4.95;1.83;;;;;;;15.53;38.56;101709.63;5007030;28;20034;-78